createdAt,value
2018-09-11T00:00:10.670Z,17.40
2018-09-11T00:02:40.225Z,17.30
2018-09-11T00:05:08.522Z,17.30
2018-09-11T00:07:37.010Z,17.30
2018-09-11T00:10:05.875Z,17.30
2018-09-11T00:12:34.293Z,17.20
2018-09-11T00:15:02.565Z,17.20
2018-09-11T00:17:30.860Z,17.20
2018-09-11T00:19:59.139Z,17.20
2018-09-11T00:22:27.534Z,17.30
2018-09-11T00:24:55.817Z,17.30
2018-09-11T00:27:24.094Z,17.10
2018-09-11T00:29:53.369Z,17.10
2018-09-11T00:32:21.697Z,17.20
2018-09-11T00:34:50.552Z,17.10
2018-09-11T00:37:19.515Z,17.00
2018-09-11T00:39:48.218Z,17.00
2018-09-11T00:42:16.925Z,17.00
2018-09-11T00:44:45.182Z,17.00
2018-09-11T00:47:13.855Z,16.90
2018-09-11T00:49:42.212Z,16.90
2018-09-11T00:52:11.149Z,16.90
2018-09-11T00:54:39.425Z,16.90
2018-09-11T00:57:07.682Z,16.90
2018-09-11T00:59:35.970Z,16.80
2018-09-11T01:02:04.250Z,16.70
2018-09-11T01:04:32.718Z,16.60
2018-09-11T01:07:00.990Z,16.60
2018-09-11T01:09:29.558Z,16.70
2018-09-11T01:11:57.857Z,16.70
2018-09-11T01:14:26.121Z,16.70
2018-09-11T01:16:54.397Z,16.70
2018-09-11T01:19:22.649Z,16.60
2018-09-11T01:21:51.363Z,16.60
2018-09-11T01:24:19.600Z,16.60
2018-09-11T01:26:48.809Z,16.60
2018-09-11T01:29:17.058Z,16.50
2018-09-11T01:31:45.328Z,16.60
2018-09-11T01:34:13.603Z,16.60
2018-09-11T01:36:42.425Z,16.50
2018-09-11T01:39:12.729Z,16.50
2018-09-11T01:41:41.246Z,16.60
2018-09-11T01:44:09.970Z,16.60
2018-09-11T01:46:38.229Z,16.40
2018-09-11T01:49:06.530Z,16.50
2018-09-11T01:51:35.555Z,16.40
2018-09-11T01:54:04.662Z,16.40
2018-09-11T01:56:33.017Z,16.40
2018-09-11T01:59:01.292Z,16.40
2018-09-11T02:01:29.566Z,16.40
2018-09-11T02:03:57.809Z,16.30
2018-09-11T02:06:26.140Z,16.30
2018-09-11T02:08:54.393Z,16.30
2018-09-11T02:11:22.655Z,16.30
2018-09-11T02:13:50.913Z,16.30
2018-09-11T02:16:19.186Z,16.20
2018-09-11T02:18:47.602Z,16.20
2018-09-11T02:21:17.434Z,16.10
2018-09-11T02:23:46.181Z,16.10
2018-09-11T02:26:14.874Z,16.20
2018-09-11T02:28:43.129Z,16.20
2018-09-11T02:31:11.409Z,16.20
2018-09-11T02:33:39.693Z,16.00
2018-09-11T02:36:08.443Z,15.80
2018-09-11T02:38:43.641Z,15.70
2018-09-11T02:41:12.992Z,15.70
2018-09-11T02:43:41.671Z,15.80
2018-09-11T02:46:09.931Z,15.90
2018-09-11T02:48:38.184Z,15.80
2018-09-11T02:51:07.279Z,15.80
2018-09-11T02:53:36.064Z,15.80
2018-09-11T02:56:04.501Z,15.80
2018-09-11T02:58:32.770Z,15.80
2018-09-11T03:01:01.099Z,15.80
2018-09-11T03:03:29.353Z,15.80
2018-09-11T03:05:57.785Z,15.70
2018-09-11T03:08:26.062Z,15.70
2018-09-11T03:10:54.311Z,15.60
2018-09-11T03:13:22.573Z,15.60
2018-09-11T03:15:50.994Z,15.70
2018-09-11T03:18:25.493Z,15.60
2018-09-11T03:20:54.856Z,15.50
2018-09-11T03:23:23.117Z,15.50
2018-09-11T03:25:51.408Z,15.50
2018-09-11T03:28:19.908Z,15.50
2018-09-11T03:30:48.245Z,15.50
2018-09-11T03:33:17.169Z,15.50
2018-09-11T03:35:45.430Z,15.50
2018-09-11T03:38:14.405Z,15.50
2018-09-11T03:40:48.403Z,15.40
2018-09-11T03:43:16.680Z,15.40
2018-09-11T03:45:47.804Z,15.50
2018-09-11T03:48:17.107Z,15.50
2018-09-11T03:50:52.790Z,15.50
2018-09-11T03:53:21.538Z,15.40
2018-09-11T03:55:49.790Z,15.40
2018-09-11T03:58:18.702Z,15.30
2018-09-11T04:00:47.621Z,15.40
2018-09-11T04:03:15.962Z,15.40
2018-09-11T04:05:44.218Z,15.40
2018-09-11T04:08:12.504Z,15.40
2018-09-11T04:10:40.775Z,15.40
2018-09-11T04:13:09.105Z,15.30
2018-09-11T04:15:38.266Z,15.40
2018-09-11T04:18:06.534Z,15.30
2018-09-11T04:20:34.800Z,15.30
2018-09-11T04:23:05.104Z,15.30
2018-09-11T04:25:33.434Z,15.30
2018-09-11T04:28:02.170Z,15.30
2018-09-11T04:30:30.438Z,15.20
2018-09-11T04:32:58.761Z,15.20
2018-09-11T04:35:27.861Z,15.20
2018-09-11T04:38:03.563Z,15.20
2018-09-11T04:40:32.165Z,15.30
2018-09-11T04:43:00.764Z,15.20
2018-09-11T04:45:28.999Z,15.10
2018-09-11T04:47:57.259Z,15.20
2018-09-11T04:50:32.438Z,15.10
2018-09-11T04:53:01.154Z,15.20
2018-09-11T04:55:29.418Z,15.20
2018-09-11T04:57:57.669Z,15.00
2018-09-11T05:00:25.933Z,15.20
2018-09-11T05:02:54.637Z,15.20
2018-09-11T05:05:22.887Z,15.20
2018-09-11T05:07:51.148Z,15.20
2018-09-11T05:10:20.088Z,15.20
2018-09-11T05:12:48.756Z,15.10
2018-09-11T05:15:17.027Z,15.20
2018-09-11T05:17:45.335Z,15.20
2018-09-11T05:20:13.607Z,15.30
2018-09-11T05:22:42.057Z,15.30
2018-09-11T05:25:10.383Z,15.40
2018-09-11T05:27:38.737Z,15.50
2018-09-11T05:30:07.325Z,15.40
2018-09-11T05:32:35.616Z,15.50
2018-09-11T05:37:46.001Z,15.60
2018-09-11T05:40:14.965Z,15.60
2018-09-11T05:45:18.599Z,15.60
2018-09-11T05:47:47.063Z,15.80
2018-09-11T05:50:15.353Z,15.90
2018-09-11T05:52:43.901Z,15.80
2018-09-11T05:55:12.170Z,16.00
2018-09-11T05:57:40.426Z,16.30
2018-09-11T06:00:09.298Z,16.50
2018-09-11T06:05:18.130Z,16.90
2018-09-11T06:07:46.389Z,17.20
2018-09-11T06:10:14.674Z,17.30
2018-09-11T06:12:42.973Z,17.50
2018-09-11T06:15:11.353Z,17.80
2018-09-11T06:17:39.635Z,18.00
2018-09-11T06:20:07.951Z,18.20
2018-09-11T06:22:36.857Z,18.30
2018-09-11T06:25:05.166Z,18.40
2018-09-11T06:27:33.445Z,18.60
2018-09-11T06:30:01.765Z,18.60
2018-09-11T06:32:30.062Z,18.90
2018-09-11T06:34:58.382Z,18.80
2018-09-11T06:37:26.674Z,18.80
2018-09-11T06:39:55.365Z,19.00
2018-09-11T06:42:24.216Z,19.20
2018-09-11T06:44:52.475Z,19.30
2018-09-11T06:49:55.989Z,19.20
2018-09-11T06:52:25.073Z,19.30
2018-09-11T06:54:54.343Z,19.40
2018-09-11T06:57:22.589Z,19.40
2018-09-11T06:59:50.862Z,19.40
2018-09-11T07:02:19.300Z,19.50
2018-09-11T07:04:47.626Z,19.60
2018-09-11T07:07:16.522Z,19.70
2018-09-11T07:09:44.758Z,19.60
2018-09-11T07:12:13.499Z,19.80
2018-09-11T07:14:41.854Z,19.90
2018-09-11T07:17:10.062Z,20.20
2018-09-11T07:19:38.390Z,20.30
2018-09-11T07:22:06.647Z,20.50
2018-09-11T07:24:35.102Z,20.80
2018-09-11T07:29:38.874Z,21.10
2018-09-11T07:32:07.363Z,21.40
2018-09-11T07:34:36.077Z,21.60
2018-09-11T07:37:04.415Z,21.90
2018-09-11T07:39:32.982Z,22.20
2018-09-11T07:42:01.469Z,22.30
2018-09-11T07:44:29.760Z,22.70
2018-09-11T07:46:58.030Z,23.00
2018-09-11T07:49:27.213Z,22.80
2018-09-11T07:51:55.970Z,23.10
2018-09-11T07:54:24.174Z,23.20
2018-09-11T07:56:52.463Z,23.20
2018-09-11T07:59:20.762Z,23.20
2018-09-11T08:01:49.017Z,23.70
2018-09-11T08:04:17.366Z,23.40
2018-09-11T08:06:45.697Z,23.60
2018-09-11T08:09:14.126Z,23.40
2018-09-11T08:11:42.397Z,23.50
2018-09-11T08:14:10.871Z,24.20
2018-09-11T08:16:39.227Z,24.90
2018-09-11T08:19:07.591Z,26.20
2018-09-11T08:21:35.976Z,26.70
2018-09-11T08:24:04.231Z,27.50
2018-09-11T08:26:32.584Z,27.90
2018-09-11T08:29:01.446Z,28.70
2018-09-11T08:31:29.707Z,28.60
2018-09-11T08:33:58.754Z,28.70
2018-09-11T08:36:27.064Z,29.30
2018-09-11T08:38:55.526Z,29.00
2018-09-11T08:41:31.529Z,29.10
2018-09-11T08:43:59.922Z,29.30
2018-09-11T08:46:28.247Z,29.50
2018-09-11T08:48:56.500Z,29.30
2018-09-11T08:51:25.664Z,28.80
2018-09-11T08:53:54.293Z,29.20
2018-09-11T08:56:22.853Z,29.60
2018-09-11T08:58:51.427Z,29.80
2018-09-11T09:01:19.901Z,29.70
2018-09-11T09:03:48.878Z,29.90
2018-09-11T09:06:17.631Z,29.70
2018-09-11T09:08:47.126Z,30.00
2018-09-11T09:11:15.401Z,30.50
2018-09-11T09:16:37.814Z,32.20
2018-09-11T09:19:06.274Z,32.90
2018-09-11T09:21:34.498Z,33.70
2018-09-11T09:24:03.082Z,33.80
2018-09-11T09:26:31.358Z,33.80
2018-09-11T09:28:59.846Z,33.60
2018-09-11T09:31:28.129Z,33.30
2018-09-11T09:33:56.495Z,33.70
2018-09-11T09:36:25.276Z,33.80
2018-09-11T09:38:54.261Z,33.90
2018-09-11T09:41:23.177Z,34.00
2018-09-11T09:43:51.543Z,34.50
2018-09-11T09:46:19.769Z,33.80
2018-09-11T09:48:48.044Z,34.70
2018-09-11T09:51:17.063Z,34.00
2018-09-11T09:56:29.866Z,35.10
2018-09-11T09:58:58.160Z,35.90
2018-09-11T10:01:31.918Z,35.90
2018-09-11T10:04:00.226Z,35.40
2018-09-11T10:06:28.625Z,34.90
2018-09-11T10:08:56.917Z,35.60
2018-09-11T10:11:25.329Z,35.60
2018-09-11T10:13:54.062Z,35.80
2018-09-11T10:16:22.279Z,36.00
2018-09-11T10:18:50.504Z,36.30
2018-09-11T10:21:19.302Z,37.00
2018-09-11T10:23:47.615Z,36.20
2018-09-11T10:26:16.278Z,34.90
2018-09-11T10:35:53.933Z,34.60
2018-09-11T10:38:22.463Z,35.20
2018-09-11T10:40:51.211Z,34.70
2018-09-11T10:43:19.449Z,34.80
2018-09-11T10:45:47.719Z,34.60
2018-09-11T10:48:15.982Z,35.60
2018-09-11T10:50:44.724Z,35.70
2018-09-11T10:53:13.379Z,35.20
2018-09-11T10:55:41.651Z,35.60
2018-09-11T10:58:09.902Z,35.00
2018-09-11T11:00:38.135Z,35.10
2018-09-11T11:03:06.643Z,34.70
2018-09-11T11:05:34.969Z,34.00
2018-09-11T11:08:03.290Z,33.90
2018-09-11T11:10:31.546Z,33.90
2018-09-11T11:13:00.563Z,33.80
2018-09-11T11:15:28.847Z,33.20
2018-09-11T11:17:57.145Z,32.60
2018-09-11T11:20:25.643Z,32.90
2018-09-11T11:22:53.890Z,33.00
2018-09-11T11:25:22.208Z,32.90
2018-09-11T11:27:50.780Z,32.40
2018-09-11T11:30:19.039Z,32.20
2018-09-11T11:32:47.243Z,31.60
2018-09-11T11:35:15.574Z,31.90
2018-09-11T11:37:46.541Z,31.40
2018-09-11T11:40:15.206Z,31.10
2018-09-11T11:42:43.801Z,31.20
2018-09-11T11:45:12.125Z,30.80
2018-09-11T11:47:40.368Z,30.30
2018-09-11T11:50:08.699Z,29.70
2018-09-11T11:52:39.198Z,29.80
2018-09-11T11:55:07.524Z,29.60
2018-09-11T11:57:35.749Z,29.40
2018-09-11T12:00:04.050Z,29.40
2018-09-11T12:02:33.711Z,29.20
2018-09-11T12:05:01.935Z,29.00
2018-09-11T12:07:30.240Z,29.20
2018-09-11T12:09:59.090Z,28.90
2018-09-11T12:12:27.393Z,28.70
2018-09-11T12:14:55.766Z,28.60
2018-09-11T12:17:24.391Z,28.60
2018-09-11T12:19:52.702Z,28.50
2018-09-11T12:22:20.922Z,28.40
2018-09-11T12:24:49.293Z,28.00
2018-09-11T12:27:17.543Z,27.90
2018-09-11T12:29:45.871Z,28.00
2018-09-11T12:32:14.386Z,27.90
2018-09-11T12:34:43.053Z,27.80
2018-09-11T12:37:12.027Z,27.70
2018-09-11T12:39:40.485Z,27.60
2018-09-11T12:42:08.882Z,27.50
2018-09-11T12:44:37.205Z,27.60
2018-09-11T12:47:06.120Z,27.60
2018-09-11T12:49:34.094Z,27.90
2018-09-11T12:52:03.055Z,27.90
2018-09-11T12:54:31.346Z,27.90
2018-09-11T12:56:59.582Z,28.00
2018-09-11T12:59:27.840Z,28.20
2018-09-11T13:01:56.086Z,28.30
2018-09-11T13:04:24.422Z,28.40
2018-09-11T13:06:53.214Z,28.60
2018-09-11T13:09:21.726Z,28.90
2018-09-11T13:11:49.972Z,29.30
2018-09-11T13:14:18.254Z,29.70
2018-09-11T13:16:46.569Z,30.20
2018-09-11T13:19:15.067Z,30.90
2018-09-11T13:21:43.826Z,31.00
2018-09-11T13:24:12.088Z,31.40
2018-09-11T13:26:40.434Z,32.10
2018-09-11T13:29:08.914Z,32.50
2018-09-11T13:31:37.698Z,33.20
2018-09-11T13:34:06.178Z,33.90
2018-09-11T13:36:35.169Z,34.20
2018-09-11T13:39:05.044Z,34.20
2018-09-11T13:41:33.312Z,34.50
2018-09-11T13:44:01.562Z,34.70
2018-09-11T13:46:30.673Z,34.90
2018-09-11T13:48:58.895Z,34.60
2018-09-11T13:51:27.855Z,34.20
2018-09-11T13:53:56.115Z,33.30
2018-09-11T13:56:24.374Z,32.50
2018-09-11T13:58:52.612Z,31.70
2018-09-11T14:01:21.181Z,30.70
2018-09-11T14:03:49.419Z,30.00
2018-09-11T14:06:17.660Z,29.50
2018-09-11T14:08:45.929Z,28.80
2018-09-11T14:11:14.266Z,28.40
2018-09-11T14:13:42.590Z,28.10
2018-09-11T14:16:10.908Z,28.10
2018-09-11T14:18:39.346Z,27.80
2018-09-11T14:21:07.628Z,27.50
2018-09-11T14:23:35.893Z,27.20
2018-09-11T14:26:04.248Z,27.10
2018-09-11T14:28:32.606Z,27.10
2018-09-11T14:31:00.910Z,27.00
2018-09-11T14:33:29.192Z,27.10
2018-09-11T14:38:31.399Z,26.80
2018-09-11T14:41:00.090Z,26.80
2018-09-11T14:46:21.233Z,26.60
2018-09-11T14:48:49.466Z,26.60
2018-09-11T14:51:18.153Z,26.60
2018-09-11T14:53:46.398Z,26.60
2018-09-11T14:56:14.658Z,26.60
2018-09-11T14:58:43.070Z,26.50
2018-09-11T15:01:11.839Z,26.40
2018-09-11T15:03:40.107Z,26.50
2018-09-11T15:06:08.402Z,26.40
2018-09-11T15:08:36.671Z,26.20
2018-09-11T15:11:04.941Z,26.30
2018-09-11T15:13:33.242Z,26.20
2018-09-11T15:16:01.812Z,26.20
2018-09-11T15:18:30.738Z,26.20
2018-09-11T15:20:58.962Z,26.10
2018-09-11T15:23:27.189Z,26.20
2018-09-11T15:25:55.666Z,26.20
2018-09-11T15:28:24.769Z,26.20
2018-09-11T15:30:53.056Z,26.20
2018-09-11T15:33:21.289Z,26.00
2018-09-11T15:35:49.571Z,26.10
2018-09-11T15:38:18.182Z,26.10
2018-09-11T15:40:46.709Z,26.00
2018-09-11T15:43:15.013Z,25.90
2018-09-11T15:45:43.287Z,26.00
2018-09-11T15:48:12.032Z,25.90
2018-09-11T15:50:40.954Z,26.00
2018-09-11T15:53:09.728Z,25.90
2018-09-11T15:55:38.051Z,25.90
2018-09-11T15:58:06.287Z,25.80
2018-09-11T16:00:34.627Z,25.70
2018-09-11T16:03:02.874Z,25.60
2018-09-11T16:05:32.190Z,25.70
2018-09-11T16:08:00.477Z,25.60
2018-09-11T16:10:28.729Z,25.60
2018-09-11T16:12:56.965Z,25.80
2018-09-11T16:15:25.415Z,25.70
2018-09-11T16:17:54.090Z,25.60
2018-09-11T16:20:22.973Z,25.50
2018-09-11T16:22:51.218Z,25.50
2018-09-11T16:25:19.456Z,25.40
2018-09-11T16:27:47.728Z,25.40
2018-09-11T16:30:16.096Z,25.30
2018-09-11T16:32:44.455Z,25.40
2018-09-11T16:35:13.182Z,25.30
2018-09-11T16:37:47.271Z,25.20
2018-09-11T16:40:15.848Z,25.20
2018-09-11T16:42:44.113Z,25.20
2018-09-11T16:45:12.589Z,25.10
2018-09-11T16:47:40.943Z,25.00
2018-09-11T16:50:09.222Z,25.00
2018-09-11T16:52:38.022Z,25.10
2018-09-11T16:55:06.458Z,25.10
2018-09-11T16:57:34.685Z,25.00
2018-09-11T17:00:03.110Z,25.00
2018-09-11T17:02:31.476Z,24.90
2018-09-11T17:04:59.841Z,24.80
2018-09-11T17:07:28.132Z,24.70
2018-09-11T17:09:56.385Z,24.70
2018-09-11T17:12:24.626Z,24.60
2018-09-11T17:14:52.967Z,24.50
2018-09-11T17:17:21.734Z,24.40
2018-09-11T17:19:50.595Z,24.40
2018-09-11T17:22:19.040Z,24.40
2018-09-11T17:24:47.298Z,24.20
2018-09-11T17:27:15.640Z,24.20
2018-09-11T17:29:43.883Z,24.10
2018-09-11T17:32:12.165Z,24.00
2018-09-11T17:34:41.005Z,23.90
2018-09-11T17:37:09.886Z,23.80
2018-09-11T17:39:38.317Z,23.80
2018-09-11T17:42:06.581Z,23.70
2018-09-11T17:44:34.816Z,23.60
2018-09-11T17:47:03.041Z,23.50
2018-09-11T17:49:31.262Z,23.40
2018-09-11T17:51:59.810Z,23.40
2018-09-11T17:54:28.226Z,23.30
2018-09-11T17:56:56.471Z,23.20
2018-09-11T17:59:24.998Z,23.10
2018-09-11T18:04:39.303Z,23.10
2018-09-11T18:07:07.710Z,22.90
2018-09-11T18:09:35.954Z,22.90
2018-09-11T18:12:04.248Z,22.80
2018-09-11T18:14:32.546Z,22.70
2018-09-11T18:17:01.039Z,22.70
2018-09-11T18:19:29.598Z,22.60
2018-09-11T18:21:58.047Z,22.50
2018-09-11T18:24:26.341Z,22.50
2018-09-11T18:26:54.658Z,22.40
2018-09-11T18:29:22.969Z,22.40
2018-09-11T18:31:51.254Z,22.30
2018-09-11T18:34:19.666Z,22.30
2018-09-11T18:36:48.640Z,22.20
2018-09-11T18:39:17.436Z,22.10
2018-09-11T18:41:45.742Z,22.10
2018-09-11T18:44:13.990Z,22.00
2018-09-11T18:46:42.259Z,21.90
2018-09-11T18:49:10.658Z,21.90
2018-09-11T18:51:39.562Z,21.90
2018-09-11T18:54:07.952Z,21.80
2018-09-11T18:56:36.253Z,21.70
2018-09-11T18:59:04.596Z,21.60
2018-09-11T19:01:32.846Z,21.60
2018-09-11T19:04:01.266Z,21.50
2018-09-11T19:06:29.533Z,21.40
2018-09-11T19:08:58.341Z,21.40
2018-09-11T19:11:26.581Z,21.30
2018-09-11T19:13:55.005Z,21.30
2018-09-11T19:16:23.289Z,21.30
2018-09-11T19:18:51.864Z,21.30
2018-09-11T19:21:20.115Z,21.20
2018-09-11T19:23:48.435Z,21.10
2018-09-11T19:26:16.738Z,21.00
2018-09-11T19:28:45.123Z,21.00
2018-09-11T19:31:13.404Z,20.90
2018-09-11T19:33:42.187Z,20.90
2018-09-11T19:36:10.661Z,20.90
2018-09-11T19:38:44.222Z,20.90
2018-09-11T19:41:12.809Z,20.80
2018-09-11T19:43:41.076Z,20.70
2018-09-11T19:46:09.659Z,20.60
2018-09-11T19:48:38.271Z,20.50
2018-09-11T19:51:07.010Z,20.50
2018-09-11T19:53:35.676Z,20.40
2018-09-11T19:56:04.600Z,20.40
2018-09-11T19:58:33.297Z,20.30
2018-09-11T20:01:01.567Z,20.20
2018-09-11T20:03:30.233Z,20.20
2018-09-11T20:05:58.459Z,20.10
2018-09-11T20:08:26.775Z,20.00
2018-09-11T20:10:55.136Z,19.90
2018-09-11T20:13:23.851Z,19.90
2018-09-11T20:15:52.236Z,19.90
2018-09-11T20:18:21.385Z,19.90
2018-09-11T20:20:50.274Z,19.80
2018-09-11T20:23:18.591Z,19.80
2018-09-11T20:25:46.851Z,19.70
2018-09-11T20:28:15.123Z,19.70
2018-09-11T20:30:43.495Z,19.60
2018-09-11T20:33:11.835Z,19.50
2018-09-11T20:35:40.309Z,19.50
2018-09-11T20:38:11.542Z,19.50
2018-09-11T20:40:40.014Z,19.30
2018-09-11T20:43:08.462Z,19.40
2018-09-11T20:45:36.663Z,19.30
2018-09-11T20:48:04.894Z,19.30
2018-09-11T20:50:33.185Z,19.20
2018-09-11T20:53:03.242Z,19.10
2018-09-11T20:55:34.475Z,19.00
2018-09-11T20:58:04.683Z,19.00
2018-09-11T21:00:33.789Z,19.00
2018-09-11T21:03:05.070Z,19.00
2018-09-11T21:05:33.426Z,18.90
2018-09-11T21:08:01.727Z,18.90
2018-09-11T21:10:30.037Z,18.90
2018-09-11T21:12:58.894Z,18.90
2018-09-11T21:15:27.289Z,18.90
2018-09-11T21:17:55.584Z,18.70
2018-09-11T21:20:24.265Z,18.60
2018-09-11T21:22:52.535Z,18.60
2018-09-11T21:25:20.855Z,18.60
2018-09-11T21:27:49.222Z,18.50
2018-09-11T21:30:17.854Z,18.40
2018-09-11T21:32:46.121Z,18.40
2018-09-11T21:35:14.378Z,18.40
2018-09-11T21:37:48.398Z,18.50
2018-09-11T21:40:17.172Z,18.50
2018-09-11T21:42:45.445Z,18.40
2018-09-11T21:45:13.702Z,18.40
2018-09-11T21:47:42.250Z,18.30
2018-09-11T21:50:10.498Z,18.30
2018-09-11T21:52:39.143Z,18.40
2018-09-11T21:58:07.789Z,18.30
2018-09-11T22:00:42.042Z,18.20
2018-09-11T22:03:10.852Z,18.10
2018-09-11T22:05:39.292Z,18.10
2018-09-11T22:08:07.972Z,18.20
2018-09-11T22:10:36.249Z,18.20
2018-09-11T22:13:04.507Z,18.10
2018-09-11T22:15:32.798Z,18.00
2018-09-11T22:18:01.138Z,18.00
2018-09-11T22:20:29.557Z,18.00
2018-09-11T22:22:57.981Z,17.90
2018-09-11T22:25:26.263Z,17.90
2018-09-11T22:27:54.506Z,17.90
2018-09-11T22:30:22.750Z,17.80
2018-09-11T22:32:51.880Z,17.80
2018-09-11T22:35:20.149Z,17.70
2018-09-11T22:37:49.090Z,17.60
2018-09-11T22:40:17.857Z,17.60
2018-09-11T22:42:46.129Z,17.60
2018-09-11T22:45:14.469Z,17.60
2018-09-11T22:47:44.762Z,17.60
2018-09-11T22:50:13.821Z,17.50
2018-09-11T22:52:43.277Z,17.40
2018-09-11T22:55:11.638Z,17.30
2018-09-11T22:57:39.934Z,17.30
2018-09-11T23:00:08.889Z,17.30
2018-09-11T23:02:37.141Z,17.20
2018-09-11T23:05:06.070Z,17.20
2018-09-11T23:07:34.761Z,17.20
2018-09-11T23:10:03.064Z,17.20
2018-09-11T23:12:31.310Z,17.30
2018-09-11T23:15:00.304Z,17.20
2018-09-11T23:17:29.679Z,17.10
2018-09-11T23:19:58.795Z,17.10
2018-09-11T23:22:28.362Z,17.10
2018-09-11T23:24:57.392Z,17.00
2018-09-11T23:27:26.345Z,17.00
2018-09-11T23:29:55.518Z,16.90
2018-09-11T23:32:24.628Z,16.90
2018-09-11T23:34:53.851Z,16.80
2018-09-11T23:37:22.903Z,16.80
2018-09-11T23:39:52.920Z,16.80
2018-09-11T23:42:21.195Z,16.70
2018-09-11T23:44:49.458Z,16.80
2018-09-11T23:47:17.870Z,16.70
2018-09-11T23:49:46.124Z,16.70
2018-09-11T23:52:14.686Z,16.60
2018-09-11T23:54:43.820Z,16.60
2018-09-11T23:57:12.067Z,16.60
2018-09-11T23:59:40.319Z,16.50
